VOE3598 LEGR-LEXJ
Flight info
| Callsign | VOE3598 |
|---|---|
| Flight time | 1h 5m |
| Altitude | 34000 |
| Route | BLN DCT MORAL DCT BEXID DCT VTB DCT SIE DCT XERMA DCT ARLUN N865 UNGAS Y753 EMANU |
| Aircraft | A20N/M-SDE2E3FGHIRWXY/LB1 |
Departure
| Time | 2026-04-28 08:57 |
|---|---|
| Airport | F.G.L. Airport Granada-Jaén Airport (LEGR) |
Arrival
| Time | 2026-04-28 10:02 |
|---|---|
| Airport | Seve Ballesteros-Santander Airport (LEXJ) |
| Time | Latitude | Longitude | Altitude | Speed | Heading |
|---|---|---|---|---|---|
| 2026-04-28 08:35 | 37.18566 | -3.77722 | 1869 ft | 0 kts | 270° |
| 2026-04-28 08:50 | 37.18566 | -3.77729 | 1869 ft | 1 kts | 270° |
| 2026-04-28 08:50 | 37.18567 | -3.77752 | 1869 ft | 2 kts | 276° |
| 2026-04-28 08:50 | 37.18572 | -3.77779 | 1869 ft | 3 kts | 294° |
| 2026-04-28 08:51 | 37.18583 | -3.77796 | 1869 ft | 4 kts | 324° |
| 2026-04-28 08:51 | 37.18626 | -3.77802 | 1869 ft | 5 kts | 360° |
| 2026-04-28 08:51 | 37.18653 | -3.77803 | 1869 ft | 5 kts | 359° |
| 2026-04-28 08:51 | 37.18695 | -3.77812 | 1869 ft | 6 kts | 319° |
| 2026-04-28 08:52 | 37.18694 | -3.77889 | 1869 ft | 7 kts | 278° |
| 2026-04-28 08:52 | 37.18701 | -3.77933 | 1869 ft | 8 kts | 275° |
| 2026-04-28 08:52 | 37.18701 | -3.78008 | 1869 ft | 9 kts | 269° |
| 2026-04-28 08:52 | 37.18701 | -3.78092 | 1869 ft | 9 kts | 270° |
| 2026-04-28 08:53 | 37.18700 | -3.78214 | 1869 ft | 10 kts | 269° |
| 2026-04-28 08:53 | 37.18700 | -3.78278 | 1869 ft | 11 kts | 270° |
| 2026-04-28 08:53 | 37.18698 | -3.78380 | 1869 ft | 12 kts | 269° |
| 2026-04-28 08:53 | 37.18698 | -3.78487 | 1869 ft | 12 kts | 270° |
| 2026-04-28 08:54 | 37.18697 | -3.78637 | 1869 ft | 13 kts | 269° |
| 2026-04-28 08:54 | 37.18696 | -3.78752 | 1869 ft | 13 kts | 270° |
| 2026-04-28 08:54 | 37.18696 | -3.78831 | 1869 ft | 13 kts | 269° |
| 2026-04-28 08:54 | 37.18695 | -3.78953 | 1869 ft | 14 kts | 269° |
| 2026-04-28 08:55 | 37.18694 | -3.79075 | 1869 ft | 14 kts | 270° |
| 2026-04-28 08:55 | 37.18694 | -3.79242 | 1869 ft | 14 kts | 270° |
| 2026-04-28 08:55 | 37.18713 | -3.79320 | 1869 ft | 14 kts | 322° |
| 2026-04-28 08:55 | 37.18799 | -3.79333 | 1869 ft | 9 kts | 1° |
| 2026-04-28 08:56 | 37.18863 | -3.79284 | 1869 ft | 10 kts | 91° |
| 2026-04-28 08:56 | 37.18862 | -3.79201 | 1869 ft | 26 kts | 88° |
| 2026-04-28 08:56 | 37.18870 | -3.78266 | 1869 ft | 128 kts | 89° |
| 2026-04-28 08:56 | 37.18882 | -3.76923 | 2080 ft | 167 kts | 88° |
| 2026-04-28 08:57 | 37.18888 | -3.75960 | 2526 ft | 168 kts | 88° |
| 2026-04-28 08:57 | 37.18899 | -3.74473 | 3170 ft | 179 kts | 88° |
| 2026-04-28 08:57 | 37.18914 | -3.72840 | 3724 ft | 196 kts | 88° |
| 2026-04-28 08:57 | 37.18928 | -3.71067 | 4214 ft | 214 kts | 88° |
| 2026-04-28 08:58 | 37.18943 | -3.69079 | 4691 ft | 238 kts | 88° |
| 2026-04-28 08:58 | 37.19024 | -3.66959 | 5330 ft | 253 kts | 76° |
| 2026-04-28 08:58 | 37.20284 | -3.64556 | 6455 ft | 256 kts | 33° |
| 2026-04-28 08:58 | 37.21291 | -3.63761 | 7083 ft | 258 kts | 25° |
| 2026-04-28 08:59 | 37.23016 | -3.63142 | 7691 ft | 271 kts | 3° |
| 2026-04-28 08:59 | 37.24945 | -3.63090 | 8347 ft | 284 kts | 357° |
| 2026-04-28 08:59 | 37.26936 | -3.63155 | 9197 ft | 290 kts | 357° |
| 2026-04-28 08:59 | 37.28960 | -3.63202 | 10060 ft | 295 kts | 358° |
| 2026-04-28 09:00 | 37.31747 | -3.63214 | 10969 ft | 310 kts | 359° |
| 2026-04-28 09:00 | 37.33183 | -3.63202 | 11441 ft | 316 kts | 359° |
| 2026-04-28 09:00 | 37.35410 | -3.63173 | 12259 ft | 322 kts | 360° |
| 2026-04-28 09:00 | 37.38398 | -3.63123 | 13343 ft | 328 kts | 0° |
| 2026-04-28 09:01 | 37.39931 | -3.63099 | 13879 ft | 331 kts | 360° |
| 2026-04-28 09:01 | 37.43032 | -3.63074 | 14925 ft | 338 kts | 360° |
| 2026-04-28 09:01 | 37.44601 | -3.63064 | 15436 ft | 341 kts | 360° |
| 2026-04-28 09:01 | 37.46954 | -3.63048 | 16178 ft | 345 kts | 360° |
| 2026-04-28 09:02 | 37.49362 | -3.63031 | 16910 ft | 350 kts | 360° |
| 2026-04-28 09:02 | 37.51817 | -3.63013 | 17628 ft | 354 kts | 0° |
| 2026-04-28 09:02 | 37.54284 | -3.62994 | 18323 ft | 358 kts | 0° |
| 2026-04-28 09:02 | 37.56777 | -3.62974 | 18997 ft | 363 kts | 0° |
| 2026-04-28 09:03 | 37.59303 | -3.62954 | 19659 ft | 367 kts | 0° |
| 2026-04-28 09:03 | 37.62723 | -3.62927 | 20531 ft | 372 kts | 0° |
| 2026-04-28 09:03 | 37.64445 | -3.62913 | 20959 ft | 375 kts | 0° |
| 2026-04-28 09:03 | 37.67045 | -3.62892 | 21592 ft | 379 kts | 1° |
| 2026-04-28 09:04 | 37.69706 | -3.62870 | 22222 ft | 383 kts | 1° |
| 2026-04-28 09:04 | 37.72356 | -3.62849 | 22836 ft | 387 kts | 1° |
| 2026-04-28 09:04 | 37.75046 | -3.62826 | 23442 ft | 391 kts | 1° |
| 2026-04-28 09:04 | 37.77795 | -3.62804 | 24044 ft | 394 kts | 1° |
| 2026-04-28 09:05 | 37.80515 | -3.62782 | 24615 ft | 398 kts | 1° |
| 2026-04-28 09:05 | 37.83313 | -3.62758 | 25180 ft | 402 kts | 1° |
| 2026-04-28 09:05 | 37.86105 | -3.62735 | 25730 ft | 405 kts | 1° |
| 2026-04-28 09:05 | 37.88911 | -3.62711 | 26265 ft | 408 kts | 2° |
| 2026-04-28 09:06 | 37.91752 | -3.62687 | 26790 ft | 411 kts | 2° |
| 2026-04-28 09:06 | 37.94605 | -3.62663 | 27297 ft | 415 kts | 2° |
| 2026-04-28 09:06 | 37.97492 | -3.62639 | 27793 ft | 418 kts | 2° |
| 2026-04-28 09:06 | 38.00433 | -3.62613 | 28268 ft | 421 kts | 2° |
| 2026-04-28 09:07 | 38.03361 | -3.62587 | 28720 ft | 423 kts | 2° |
| 2026-04-28 09:07 | 38.06305 | -3.62561 | 29154 ft | 426 kts | 2° |
| 2026-04-28 09:07 | 38.09242 | -3.62535 | 29569 ft | 429 kts | 2° |
| 2026-04-28 09:07 | 38.12250 | -3.62510 | 29969 ft | 431 kts | 2° |
| 2026-04-28 09:08 | 38.15225 | -3.62452 | 30347 ft | 433 kts | 5° |
| 2026-04-28 09:08 | 38.18257 | -3.62228 | 30721 ft | 434 kts | 7° |
| 2026-04-28 09:08 | 38.22253 | -3.61846 | 31181 ft | 437 kts | 7° |
| 2026-04-28 09:08 | 38.25270 | -3.61547 | 31526 ft | 439 kts | 7° |
| 2026-04-28 09:09 | 38.27299 | -3.61346 | 31807 ft | 438 kts | 7° |
| 2026-04-28 09:09 | 38.31347 | -3.60950 | 32423 ft | 436 kts | 7° |
| 2026-04-28 09:09 | 38.33335 | -3.60756 | 32687 ft | 436 kts | 7° |
| 2026-04-28 09:09 | 38.36354 | -3.60462 | 33027 ft | 437 kts | 7° |
| 2026-04-28 09:10 | 38.39399 | -3.60165 | 33333 ft | 438 kts | 8° |
| 2026-04-28 09:10 | 38.42443 | -3.59868 | 33637 ft | 440 kts | 8° |
| 2026-04-28 09:10 | 38.45488 | -3.59571 | 33918 ft | 441 kts | 8° |
| 2026-04-28 09:11 | 38.51613 | -3.58975 | 33974 ft | 442 kts | 8° |
| 2026-04-28 09:11 | 38.58745 | -3.58280 | 33980 ft | 442 kts | 8° |
| 2026-04-28 09:12 | 38.63856 | -3.57780 | 33979 ft | 442 kts | 8° |
| 2026-04-28 09:12 | 38.69955 | -3.57183 | 33975 ft | 442 kts | 8° |
| 2026-04-28 09:13 | 38.76059 | -3.56584 | 33972 ft | 442 kts | 8° |
| 2026-04-28 09:13 | 38.82178 | -3.55983 | 33982 ft | 442 kts | 8° |
| 2026-04-28 09:14 | 38.88324 | -3.55377 | 34002 ft | 442 kts | 8° |
| 2026-04-28 09:14 | 38.94442 | -3.54753 | 34019 ft | 447 kts | 5° |
| 2026-04-28 09:15 | 39.00670 | -3.54133 | 34031 ft | 447 kts | 4° |
| 2026-04-28 09:15 | 39.06800 | -3.53538 | 34034 ft | 440 kts | 3° |
| 2026-04-28 09:16 | 39.12880 | -3.52951 | 34034 ft | 439 kts | 3° |
| 2026-04-28 09:16 | 39.18926 | -3.52358 | 34034 ft | 439 kts | 3° |
| 2026-04-28 09:17 | 39.24993 | -3.51756 | 34034 ft | 439 kts | 3° |
| 2026-04-28 09:17 | 39.31072 | -3.51148 | 34034 ft | 439 kts | 3° |
| 2026-04-28 09:18 | 39.37167 | -3.50537 | 34034 ft | 439 kts | 3° |
| 2026-04-28 09:18 | 39.44245 | -3.49825 | 34034 ft | 439 kts | 3° |
| 2026-04-28 09:19 | 39.49305 | -3.49313 | 34034 ft | 439 kts | 3° |
| 2026-04-28 09:19 | 39.55358 | -3.48701 | 34034 ft | 439 kts | 3° |
| 2026-04-28 09:20 | 39.62445 | -3.47990 | 34034 ft | 439 kts | 3° |
| 2026-04-28 09:20 | 39.68494 | -3.47379 | 34034 ft | 439 kts | 3° |
| 2026-04-28 09:21 | 39.73564 | -3.46866 | 34034 ft | 439 kts | 3° |
| 2026-04-28 09:21 | 39.79628 | -3.46627 | 34033 ft | 438 kts | 356° |
| 2026-04-28 09:22 | 39.85694 | -3.47154 | 34034 ft | 437 kts | 353° |
| 2026-04-28 09:22 | 39.92741 | -3.47893 | 34034 ft | 437 kts | 353° |
| 2026-04-28 09:23 | 39.97800 | -3.48414 | 34034 ft | 437 kts | 354° |
| 2026-04-28 09:23 | 40.03831 | -3.49029 | 34034 ft | 437 kts | 354° |
| 2026-04-28 09:24 | 40.10897 | -3.49746 | 34033 ft | 437 kts | 354° |
| 2026-04-28 09:24 | 40.15972 | -3.50259 | 34034 ft | 437 kts | 354° |
| 2026-04-28 09:25 | 40.23029 | -3.50974 | 34034 ft | 437 kts | 354° |
| 2026-04-28 09:25 | 40.28090 | -3.51489 | 34034 ft | 437 kts | 354° |
| 2026-04-28 09:26 | 40.34128 | -3.52105 | 34034 ft | 437 kts | 354° |
| 2026-04-28 09:26 | 40.40190 | -3.52725 | 34034 ft | 437 kts | 354° |
| 2026-04-28 09:27 | 40.50230 | -3.53754 | 34034 ft | 437 kts | 354° |
| 2026-04-28 09:27 | 40.56296 | -3.54377 | 34037 ft | 437 kts | 354° |
| 2026-04-28 09:28 | 40.61313 | -3.54893 | 34042 ft | 437 kts | 354° |
| 2026-04-28 09:28 | 40.67365 | -3.55517 | 34049 ft | 437 kts | 354° |
| 2026-04-28 09:29 | 40.73418 | -3.56141 | 34054 ft | 437 kts | 354° |
| 2026-04-28 09:29 | 40.79459 | -3.56766 | 34056 ft | 437 kts | 354° |
| 2026-04-28 09:30 | 40.85521 | -3.57393 | 34058 ft | 437 kts | 354° |
| 2026-04-28 09:30 | 40.91576 | -3.58021 | 34058 ft | 437 kts | 354° |
| 2026-04-28 09:31 | 40.97628 | -3.58648 | 34059 ft | 437 kts | 353° |
| 2026-04-28 09:31 | 41.03706 | -3.59265 | 34060 ft | 439 kts | 352° |
| 2026-04-28 09:32 | 41.09763 | -3.59889 | 34063 ft | 437 kts | 350° |
| 2026-04-28 09:32 | 41.15791 | -3.60461 | 34063 ft | 434 kts | 352° |
| 2026-04-28 09:33 | 41.21797 | -3.60658 | 34062 ft | 434 kts | 353° |
| 2026-04-28 09:33 | 41.28863 | -3.60822 | 34062 ft | 434 kts | 353° |
| 2026-04-28 09:34 | 41.34884 | -3.60969 | 34062 ft | 436 kts | 353° |
| 2026-04-28 09:34 | 41.39919 | -3.61093 | 34062 ft | 436 kts | 353° |
| 2026-04-28 09:35 | 41.46981 | -3.61266 | 34057 ft | 436 kts | 353° |
| 2026-04-28 09:35 | 41.50027 | -3.61344 | 33514 ft | 440 kts | 353° |
| 2026-04-28 09:35 | 41.53102 | -3.61373 | 32853 ft | 443 kts | 354° |
| 2026-04-28 09:36 | 41.55132 | -3.61362 | 32421 ft | 443 kts | 355° |
| 2026-04-28 09:36 | 41.59221 | -3.61334 | 31536 ft | 444 kts | 355° |
| 2026-04-28 09:36 | 41.61311 | -3.61335 | 31184 ft | 442 kts | 354° |
| 2026-04-28 09:36 | 41.64345 | -3.61339 | 30756 ft | 437 kts | 355° |
| 2026-04-28 09:37 | 41.67348 | -3.61340 | 30323 ft | 432 kts | 354° |
| 2026-04-28 09:37 | 41.70357 | -3.61338 | 29886 ft | 427 kts | 354° |
| 2026-04-28 09:37 | 41.73305 | -3.61338 | 29456 ft | 423 kts | 354° |
| 2026-04-28 09:37 | 41.76211 | -3.61338 | 29030 ft | 419 kts | 355° |
| 2026-04-28 09:38 | 41.80061 | -3.61338 | 28461 ft | 414 kts | 355° |
| 2026-04-28 09:38 | 41.81980 | -3.61339 | 28176 ft | 412 kts | 355° |
| 2026-04-28 09:38 | 41.84835 | -3.61339 | 27749 ft | 408 kts | 355° |
| 2026-04-28 09:38 | 41.87676 | -3.61338 | 27325 ft | 405 kts | 355° |
| 2026-04-28 09:39 | 41.90485 | -3.61339 | 26904 ft | 402 kts | 355° |
| 2026-04-28 09:39 | 41.93269 | -3.61340 | 26486 ft | 399 kts | 355° |
| 2026-04-28 09:39 | 41.96021 | -3.61343 | 26069 ft | 396 kts | 355° |
| 2026-04-28 09:39 | 41.99653 | -3.61351 | 25516 ft | 392 kts | 355° |
| 2026-04-28 09:40 | 42.01473 | -3.61358 | 25237 ft | 390 kts | 354° |
| 2026-04-28 09:40 | 42.04155 | -3.61474 | 24824 ft | 386 kts | 352° |
| 2026-04-28 09:40 | 42.06841 | -3.61647 | 24408 ft | 382 kts | 352° |
| 2026-04-28 09:40 | 42.09470 | -3.61825 | 24002 ft | 380 kts | 352° |
| 2026-04-28 09:41 | 42.12107 | -3.62002 | 23592 ft | 377 kts | 352° |
| 2026-04-28 09:41 | 42.14759 | -3.62175 | 23180 ft | 374 kts | 352° |
| 2026-04-28 09:41 | 42.17382 | -3.62345 | 22769 ft | 371 kts | 352° |
| 2026-04-28 09:41 | 42.19952 | -3.62511 | 22367 ft | 369 kts | 352° |
| 2026-04-28 09:42 | 42.22492 | -3.62674 | 21968 ft | 366 kts | 352° |
| 2026-04-28 09:42 | 42.25879 | -3.62893 | 21434 ft | 362 kts | 353° |
| 2026-04-28 09:42 | 42.27571 | -3.63002 | 21166 ft | 361 kts | 353° |
| 2026-04-28 09:42 | 42.30053 | -3.63163 | 20772 ft | 358 kts | 353° |
| 2026-04-28 09:43 | 42.32537 | -3.63324 | 20377 ft | 356 kts | 353° |
| 2026-04-28 09:43 | 42.34997 | -3.63500 | 19984 ft | 353 kts | 351° |
| 2026-04-28 09:43 | 42.37408 | -3.63847 | 19595 ft | 349 kts | 348° |
| 2026-04-28 09:43 | 42.39792 | -3.64306 | 19207 ft | 346 kts | 347° |
| 2026-04-28 09:44 | 42.42160 | -3.64782 | 18822 ft | 343 kts | 347° |
| 2026-04-28 09:44 | 42.45289 | -3.65413 | 18312 ft | 340 kts | 347° |
| 2026-04-28 09:44 | 42.46874 | -3.65730 | 18054 ft | 339 kts | 347° |
| 2026-04-28 09:44 | 42.49200 | -3.66195 | 17674 ft | 337 kts | 347° |
| 2026-04-28 09:45 | 42.51487 | -3.66650 | 17300 ft | 334 kts | 347° |
| 2026-04-28 09:45 | 42.53800 | -3.67110 | 16921 ft | 332 kts | 347° |
| 2026-04-28 09:45 | 42.56813 | -3.67709 | 16427 ft | 329 kts | 347° |
| 2026-04-28 09:45 | 42.58313 | -3.68007 | 16181 ft | 328 kts | 347° |
| 2026-04-28 09:46 | 42.61298 | -3.68601 | 15691 ft | 325 kts | 348° |
| 2026-04-28 09:46 | 42.62797 | -3.68900 | 15444 ft | 324 kts | 348° |
| 2026-04-28 09:46 | 42.65022 | -3.69344 | 15078 ft | 322 kts | 348° |
| 2026-04-28 09:46 | 42.67207 | -3.69780 | 14720 ft | 320 kts | 347° |
| 2026-04-28 09:47 | 42.69392 | -3.70321 | 14355 ft | 317 kts | 344° |
| 2026-04-28 09:47 | 42.71527 | -3.70939 | 13996 ft | 314 kts | 344° |
| 2026-04-28 09:47 | 42.74378 | -3.71784 | 13516 ft | 312 kts | 344° |
| 2026-04-28 09:47 | 42.76478 | -3.72405 | 13162 ft | 310 kts | 344° |
| 2026-04-28 09:48 | 42.78583 | -3.73026 | 12808 ft | 308 kts | 344° |
| 2026-04-28 09:48 | 42.79990 | -3.73441 | 12570 ft | 307 kts | 344° |
| 2026-04-28 09:48 | 42.82048 | -3.74046 | 12222 ft | 305 kts | 344° |
| 2026-04-28 09:48 | 42.84791 | -3.74852 | 11758 ft | 303 kts | 344° |
| 2026-04-28 09:49 | 42.86182 | -3.75261 | 11529 ft | 302 kts | 345° |
| 2026-04-28 09:49 | 42.88208 | -3.75858 | 11204 ft | 299 kts | 345° |
| 2026-04-28 09:49 | 42.90220 | -3.76449 | 10879 ft | 296 kts | 344° |
| 2026-04-28 09:49 | 42.92235 | -3.77043 | 10562 ft | 293 kts | 344° |
| 2026-04-28 09:50 | 42.94205 | -3.77599 | 10246 ft | 292 kts | 348° |
| 2026-04-28 09:50 | 42.96903 | -3.77218 | 9986 ft | 290 kts | 17° |
| 2026-04-28 09:50 | 42.98105 | -3.76476 | 9811 ft | 290 kts | 22° |
| 2026-04-28 09:50 | 43.00457 | -3.74722 | 9424 ft | 287 kts | 25° |
| 2026-04-28 09:51 | 43.02188 | -3.73390 | 9126 ft | 284 kts | 24° |
| 2026-04-28 09:51 | 43.03333 | -3.72514 | 8932 ft | 281 kts | 24° |
| 2026-04-28 09:51 | 43.05576 | -3.70819 | 8551 ft | 274 kts | 24° |
| 2026-04-28 09:51 | 43.07233 | -3.69578 | 8268 ft | 269 kts | 24° |
| 2026-04-28 09:52 | 43.08862 | -3.68362 | 7973 ft | 264 kts | 24° |
| 2026-04-28 09:52 | 43.10459 | -3.67174 | 7698 ft | 259 kts | 24° |
| 2026-04-28 09:52 | 43.11502 | -3.66401 | 7501 ft | 257 kts | 24° |
| 2026-04-28 09:52 | 43.13057 | -3.65257 | 7225 ft | 253 kts | 24° |
| 2026-04-28 09:53 | 43.14591 | -3.64123 | 6950 ft | 249 kts | 24° |
| 2026-04-28 09:53 | 43.16097 | -3.63010 | 6681 ft | 244 kts | 25° |
| 2026-04-28 09:53 | 43.17593 | -3.61901 | 6400 ft | 240 kts | 25° |
| 2026-04-28 09:53 | 43.19037 | -3.60820 | 6123 ft | 237 kts | 25° |
| 2026-04-28 09:54 | 43.20472 | -3.59752 | 5853 ft | 233 kts | 26° |
| 2026-04-28 09:54 | 43.21905 | -3.58684 | 5568 ft | 230 kts | 27° |
| 2026-04-28 09:54 | 43.23762 | -3.57281 | 5207 ft | 227 kts | 26° |
| 2026-04-28 09:54 | 43.24673 | -3.56595 | 5032 ft | 225 kts | 26° |
| 2026-04-28 09:55 | 43.26028 | -3.55580 | 4776 ft | 222 kts | 25° |
| 2026-04-28 09:55 | 43.27392 | -3.54567 | 4517 ft | 219 kts | 26° |
| 2026-04-28 09:55 | 43.28715 | -3.53582 | 4250 ft | 217 kts | 26° |
| 2026-04-28 09:55 | 43.30021 | -3.52604 | 3998 ft | 214 kts | 26° |
| 2026-04-28 09:56 | 43.31357 | -3.51715 | 3731 ft | 211 kts | 14° |
| 2026-04-28 09:56 | 43.32801 | -3.51596 | 3448 ft | 208 kts | 348° |
| 2026-04-28 09:56 | 43.34110 | -3.52356 | 3236 ft | 204 kts | 321° |
| 2026-04-28 09:56 | 43.34992 | -3.53816 | 3235 ft | 194 kts | 301° |
| 2026-04-28 09:57 | 43.35586 | -3.55491 | 3228 ft | 196 kts | 296° |
| 2026-04-28 09:57 | 43.36081 | -3.57145 | 3226 ft | 193 kts | 294° |
| 2026-04-28 09:57 | 43.36560 | -3.58878 | 3255 ft | 189 kts | 292° |
| 2026-04-28 09:57 | 43.36995 | -3.60515 | 3111 ft | 180 kts | 293° |
| 2026-04-28 09:58 | 43.37421 | -3.62127 | 2842 ft | 177 kts | 292° |
| 2026-04-28 09:58 | 43.37840 | -3.63719 | 2590 ft | 173 kts | 292° |
| 2026-04-28 09:58 | 43.38249 | -3.65263 | 2332 ft | 169 kts | 292° |
| 2026-04-28 09:58 | 43.38644 | -3.66756 | 2125 ft | 162 kts | 292° |
| 2026-04-28 09:59 | 43.39143 | -3.68637 | 1819 ft | 152 kts | 292° |
| 2026-04-28 09:59 | 43.39381 | -3.69533 | 1686 ft | 147 kts | 292° |
| 2026-04-28 09:59 | 43.39728 | -3.70836 | 1509 ft | 144 kts | 292° |
| 2026-04-28 09:59 | 43.40079 | -3.72151 | 1322 ft | 145 kts | 292° |
| 2026-04-28 10:00 | 43.40422 | -3.73440 | 1134 ft | 145 kts | 292° |
| 2026-04-28 10:00 | 43.40765 | -3.74729 | 951 ft | 142 kts | 292° |
| 2026-04-28 10:00 | 43.41106 | -3.76010 | 753 ft | 144 kts | 291° |
| 2026-04-28 10:00 | 43.41452 | -3.77318 | 569 ft | 142 kts | 291° |
| 2026-04-28 10:01 | 43.41904 | -3.78998 | 291 ft | 142 kts | 291° |
| 2026-04-28 10:01 | 43.42241 | -3.80276 | 134 ft | 142 kts | 291° |
| 2026-04-28 10:01 | 43.42583 | -3.81542 | 19 ft | 132 kts | 291° |
| 2026-04-28 10:01 | 43.42751 | -3.82165 | 15 ft | 76 kts | 290° |
| 2026-04-28 10:02 | 43.42903 | -3.82736 | 15 ft | 28 kts | 291° |
| 2026-04-28 10:02 | 43.42939 | -3.82895 | 15 ft | 20 kts | 274° |
| 2026-04-28 10:02 | 43.42882 | -3.83032 | 15 ft | 16 kts | 198° |
| 2026-04-28 10:02 | 43.42793 | -3.82960 | 15 ft | 16 kts | 109° |
| 2026-04-28 10:03 | 43.42742 | -3.82766 | 15 ft | 15 kts | 110° |
| 2026-04-28 10:03 | 43.42718 | -3.82674 | 15 ft | 15 kts | 110° |
| 2026-04-28 10:03 | 43.42681 | -3.82534 | 15 ft | 15 kts | 110° |
| 2026-04-28 10:03 | 43.42632 | -3.82353 | 15 ft | 11 kts | 111° |
| 2026-04-28 10:04 | 43.42603 | -3.82301 | 15 ft | 9 kts | 158° |
| 2026-04-28 10:04 | 43.42533 | -3.82325 | 15 ft | 11 kts | 200° |
| 2026-04-28 10:04 | 43.42465 | -3.82356 | 15 ft | 7 kts | 181° |
| 2026-04-28 10:04 | 43.42430 | -3.82305 | 15 ft | 7 kts | 127° |
| 2026-04-28 10:05 | 43.42391 | -3.82278 | 15 ft | 4 kts | 180° |
| 2026-04-28 10:05 | 43.42384 | -3.82285 | 15 ft | 0 kts | 240° |
| 2026-04-28 10:05 | 43.42384 | -3.82287 | 15 ft | 0 kts | 244° |
| 2026-04-28 10:05 | 43.42383 | -3.82290 | 15 ft | 1 kts | 245° |
| 2026-04-28 10:06 | 43.42381 | -3.82295 | 16 ft | 0 kts | 244° |